createdAt,value
2019-03-06T00:01:35.558Z,22.8
2019-03-06T00:04:41.668Z,22.8
2019-03-06T00:07:47.577Z,22.8
2019-03-06T00:10:53.494Z,22.8
2019-03-06T00:13:59.559Z,22.8
2019-03-06T00:17:05.547Z,22.8
2019-03-06T00:20:11.508Z,22.7
2019-03-06T00:23:17.535Z,22.7
2019-03-06T00:26:23.503Z,22.7
2019-03-06T00:29:29.394Z,22.7
2019-03-06T00:32:35.359Z,22.7
2019-03-06T00:35:41.278Z,22.7
2019-03-06T00:38:47.229Z,22.7
2019-03-06T00:41:53.267Z,22.6
2019-03-06T00:44:59.202Z,22.6
2019-03-06T00:48:05.195Z,22.6
2019-03-06T00:51:11.111Z,22.6
2019-03-06T00:54:17.052Z,22.6
2019-03-06T00:57:22.981Z,22.6
2019-03-06T01:00:28.925Z,22.6
2019-03-06T01:03:35.011Z,22.6
2019-03-06T01:06:40.955Z,22.5
2019-03-06T01:09:46.987Z,22.5
2019-03-06T01:12:52.997Z,22.5
2019-03-06T01:15:59.055Z,22.5
2019-03-06T01:19:05.057Z,22.5
2019-03-06T01:22:11.072Z,22.5
2019-03-06T01:25:17.027Z,22.5
2019-03-06T01:28:23.141Z,22.5
2019-03-06T01:31:29.038Z,22.5
2019-03-06T01:34:35.131Z,22.5
2019-03-06T01:37:41.056Z,22.5
2019-03-06T01:40:47.039Z,22.5
2019-03-06T01:43:52.964Z,22.5
2019-03-06T01:46:59.001Z,22.5
2019-03-06T01:50:07.972Z,22.5
2019-03-06T01:53:14.078Z,22.5
2019-03-06T01:56:19.959Z,22.5
2019-03-06T01:59:25.898Z,22.5
2019-03-06T02:02:31.908Z,22.5
2019-03-06T02:05:37.866Z,22.5
2019-03-06T02:08:43.886Z,22.6
2019-03-06T02:11:49.894Z,22.5
2019-03-06T02:14:55.989Z,22.6
2019-03-06T02:18:02.174Z,22.6
2019-03-06T02:21:08.271Z,22.6
2019-03-06T02:24:14.301Z,22.7
2019-03-06T02:27:20.246Z,22.7
2019-03-06T02:30:26.268Z,22.7
2019-03-06T02:33:35.356Z,22.7
2019-03-06T02:36:41.397Z,22.8
2019-03-06T02:39:47.428Z,22.8
2019-03-06T02:42:53.436Z,22.8
2019-03-06T02:45:59.498Z,22.9
2019-03-06T02:49:05.501Z,22.9
2019-03-06T02:52:11.968Z,22.9
2019-03-06T02:55:18.018Z,22.9
2019-03-06T02:58:24.085Z,22.9
2019-03-06T03:01:30.055Z,22.9
2019-03-06T03:04:37.114Z,23
2019-03-06T03:07:45.727Z,23
2019-03-06T03:10:51.797Z,23
2019-03-06T03:13:57.896Z,23
2019-03-06T03:17:04.206Z,23
2019-03-06T03:20:10.223Z,23
2019-03-06T03:23:16.234Z,23
2019-03-06T03:26:22.235Z,23
2019-03-06T03:29:29.354Z,23.1
2019-03-06T03:32:35.567Z,23.1
2019-03-06T03:35:41.642Z,23.1
2019-03-06T03:38:47.666Z,23.1
2019-03-06T03:41:54.950Z,23.1
2019-03-06T03:45:01.022Z,23.1
2019-03-06T03:48:07.080Z,23.1
2019-03-06T03:51:13.166Z,23.1
2019-03-06T03:54:19.479Z,23.2
2019-03-06T03:57:25.470Z,23.2
2019-03-06T04:00:31.437Z,23.3
2019-03-06T04:03:37.602Z,23.3
2019-03-06T04:06:43.621Z,23.4
2019-03-06T04:09:49.616Z,23.4
2019-03-06T04:12:55.645Z,23.5
2019-03-06T04:16:01.892Z,23.5
2019-03-06T04:19:07.846Z,23.6
2019-03-06T04:22:13.922Z,23.6
2019-03-06T04:25:19.954Z,23.6
2019-03-06T04:28:28.083Z,23.7
2019-03-06T04:31:34.223Z,23.7
2019-03-06T04:34:40.251Z,23.8
2019-03-06T04:37:46.329Z,23.8
2019-03-06T04:40:53.759Z,23.8
2019-03-06T04:43:59.833Z,23.9
2019-03-06T04:47:05.812Z,23.9
2019-03-06T04:50:11.797Z,23.9
2019-03-06T04:53:19.328Z,23.9
2019-03-06T04:56:25.299Z,24
2019-03-06T04:59:31.218Z,24
2019-03-06T05:02:37.303Z,24
2019-03-06T05:05:44.512Z,24
2019-03-06T05:08:50.466Z,24.1
2019-03-06T05:11:56.442Z,24.1
2019-03-06T05:15:02.381Z,24.1
2019-03-06T05:18:09.611Z,24.1
2019-03-06T05:21:15.596Z,24.2
2019-03-06T05:24:21.549Z,24.2
2019-03-06T05:27:27.504Z,24.2
2019-03-06T05:30:34.760Z,24.3
2019-03-06T05:33:40.653Z,24.3
2019-03-06T05:36:46.691Z,24.3
2019-03-06T05:39:52.629Z,24.3
2019-03-06T05:42:59.775Z,24.4
2019-03-06T05:46:06.701Z,24.4
2019-03-06T05:49:12.741Z,24.4
2019-03-06T05:52:18.656Z,24.4
2019-03-06T05:55:25.501Z,24.4
2019-03-06T05:58:31.444Z,24.5
2019-03-06T06:01:37.381Z,24.5
2019-03-06T06:04:43.446Z,24.6
2019-03-06T06:07:49.903Z,24.7
2019-03-06T06:10:55.904Z,24.7
2019-03-06T06:14:01.806Z,24.8
2019-03-06T06:17:07.841Z,24.8
2019-03-06T06:20:14.624Z,24.9
2019-03-06T06:23:20.511Z,25
2019-03-06T06:26:26.619Z,25
2019-03-06T06:29:32.580Z,25
2019-03-06T06:32:39.449Z,25.1
2019-03-06T06:35:45.508Z,25.1
2019-03-06T06:38:51.529Z,25.2
2019-03-06T06:41:57.446Z,25.2
2019-03-06T06:45:04.341Z,25.3
2019-03-06T06:48:10.305Z,25.3
2019-03-06T06:51:16.426Z,25.4
2019-03-06T06:54:22.512Z,25.4
2019-03-06T06:57:28.825Z,25.4
2019-03-06T07:00:38.559Z,25.5
2019-03-06T07:03:44.480Z,25.5
2019-03-06T07:06:50.470Z,25.6
2019-03-06T07:09:56.360Z,25.6
2019-03-06T07:13:02.706Z,25.6
2019-03-06T07:16:09.549Z,25.7
2019-03-06T07:19:15.662Z,25.7
2019-03-06T07:22:22.541Z,25.8
2019-03-06T07:25:30.317Z,25.8
2019-03-06T07:28:36.303Z,25.8
2019-03-06T07:31:42.248Z,25.9
2019-03-06T07:34:48.196Z,26
2019-03-06T07:37:54.990Z,26
2019-03-06T07:41:00.914Z,26
2019-03-06T07:44:06.877Z,26.1
2019-03-06T07:47:12.832Z,26.1
2019-03-06T07:50:18.801Z,26.1
2019-03-06T07:53:24.773Z,26.1
2019-03-06T07:56:30.719Z,26.2
2019-03-06T07:59:36.677Z,26.2
2019-03-06T08:02:42.710Z,26.3
2019-03-06T08:05:48.722Z,26.3
2019-03-06T08:08:54.696Z,26.3
2019-03-06T08:12:00.638Z,26.4
2019-03-06T08:15:07.711Z,26.4
2019-03-06T08:18:14.943Z,26.4
2019-03-06T08:21:22.227Z,26.4
2019-03-06T08:24:28.181Z,26.5
2019-03-06T08:27:36.265Z,26.5
2019-03-06T08:30:43.328Z,26.5
2019-03-06T08:33:52.296Z,26.5
2019-03-06T08:36:58.259Z,26.5
2019-03-06T08:40:04.226Z,26.6
2019-03-06T08:43:10.261Z,26.6
2019-03-06T08:46:16.232Z,26.6
2019-03-06T08:49:22.288Z,26.6
2019-03-06T08:52:28.234Z,26.6
2019-03-06T08:55:34.247Z,26.7
2019-03-06T08:58:40.354Z,26.7
2019-03-06T09:01:46.370Z,26.7
2019-03-06T09:05:02.524Z,26.8
2019-03-06T09:08:08.492Z,26.7
2019-03-06T09:11:14.902Z,26.8
2019-03-06T09:14:20.981Z,26.7
2019-03-06T09:17:26.912Z,26.7
2019-03-06T09:20:37.332Z,26.8
2019-03-06T09:23:46.396Z,26.8
2019-03-06T09:26:53.479Z,26.8
2019-03-06T09:30:01.427Z,26.8
2019-03-06T09:33:16.249Z,26.8
2019-03-06T09:36:22.213Z,26.7
2019-03-06T09:39:28.178Z,26.7
2019-03-06T09:42:34.172Z,26.7
2019-03-06T09:45:40.383Z,26.6
2019-03-06T09:48:46.393Z,26.6
2019-03-06T09:51:56.426Z,26.6
2019-03-06T09:55:02.987Z,26.6
2019-03-06T09:58:09.034Z,26.5
2019-03-06T10:01:14.998Z,26.5
2019-03-06T10:04:20.878Z,26.5
2019-03-06T10:07:27.538Z,26.5
2019-03-06T10:10:33.525Z,26.5
2019-03-06T10:13:59.976Z,26.5
2019-03-06T10:17:06.034Z,26.6
2019-03-06T10:20:12.146Z,26.5
2019-03-06T10:23:28.734Z,26.5
2019-03-06T10:26:34.759Z,26.5
2019-03-06T10:29:40.849Z,26.4
2019-03-06T10:32:47.065Z,26.5
2019-03-06T10:35:53.221Z,26.4
2019-03-06T10:38:59.230Z,26.5
2019-03-06T10:42:05.294Z,26.6
2019-03-06T10:45:13.084Z,26.6
2019-03-06T10:48:22.541Z,26.6
2019-03-06T10:51:28.623Z,26.5
2019-03-06T10:54:44.259Z,26.6
2019-03-06T10:57:50.766Z,26.5
2019-03-06T11:00:56.927Z,26.5
2019-03-06T11:04:02.986Z,26.5
2019-03-06T11:07:09.231Z,26.4
2019-03-06T11:10:23.199Z,26.4
2019-03-06T11:13:34.235Z,26.4
2019-03-06T11:16:42.024Z,26.4
2019-03-06T11:19:51.402Z,26.4
2019-03-06T11:22:57.516Z,26.4
2019-03-06T11:26:03.673Z,26.3
2019-03-06T11:29:09.885Z,26.3
2019-03-06T11:32:15.930Z,26.4
2019-03-06T11:35:26.008Z,26.3
2019-03-06T11:38:31.995Z,26.3
2019-03-06T11:41:38.069Z,26.3
2019-03-06T11:44:44.154Z,26.3
2019-03-06T11:47:51.944Z,26.3
2019-03-06T11:50:58.018Z,26.2
2019-03-06T11:54:04.089Z,26.2
2019-03-06T11:57:12.971Z,26.2
2019-03-06T12:00:21.929Z,26.2
2019-03-06T12:03:28.950Z,26.2
2019-03-06T12:06:36.041Z,26.2
2019-03-06T12:09:42.563Z,26.2
2019-03-06T12:12:48.580Z,26.2
2019-03-06T12:15:54.671Z,26.2
2019-03-06T12:19:02.160Z,26.2
2019-03-06T12:22:08.315Z,26.2
2019-03-06T12:25:14.439Z,26.2
2019-03-06T12:28:20.433Z,26.2
2019-03-06T12:31:26.596Z,26.2
2019-03-06T12:34:32.713Z,26.2
2019-03-06T12:37:46.624Z,26.2
2019-03-06T12:40:52.865Z,26.2
2019-03-06T12:44:00.009Z,26.2
2019-03-06T12:47:15.185Z,26.2
2019-03-06T12:50:21.276Z,26.2
2019-03-06T12:53:27.323Z,26.2
2019-03-06T12:56:33.348Z,26.2
2019-03-06T12:59:40.407Z,26.1
2019-03-06T13:02:46.477Z,26.2
2019-03-06T13:05:53.548Z,26.2
2019-03-06T13:08:59.618Z,26.2
2019-03-06T13:12:06.080Z,26.1
2019-03-06T13:15:12.232Z,26.2
2019-03-06T13:18:18.508Z,26.2
2019-03-06T13:21:28.421Z,26.2
2019-03-06T13:24:34.800Z,26.1
2019-03-06T13:27:41.112Z,26.1
2019-03-06T13:31:06.487Z,26.1
2019-03-06T13:34:13.562Z,26.1
2019-03-06T13:37:19.625Z,26.2
2019-03-06T13:40:25.627Z,26.2
2019-03-06T13:43:32.239Z,26.2
2019-03-06T13:46:38.326Z,26.1
2019-03-06T13:49:44.525Z,26.1
2019-03-06T13:52:52.087Z,26.1
2019-03-06T13:55:58.107Z,26.1
2019-03-06T13:59:04.309Z,26.2
2019-03-06T14:02:10.292Z,26.3
2019-03-06T14:05:16.471Z,26.4
2019-03-06T14:08:22.490Z,26.4
2019-03-06T14:11:28.664Z,26.3
2019-03-06T14:14:36.012Z,26.3
2019-03-06T14:17:42.108Z,26.3
2019-03-06T14:20:48.377Z,26.2
2019-03-06T14:23:54.497Z,26.2
2019-03-06T14:27:00.745Z,26.2
2019-03-06T14:30:06.877Z,26.2
2019-03-06T14:33:12.873Z,26.1
2019-03-06T14:36:20.106Z,26.1
2019-03-06T14:39:26.131Z,26.1
2019-03-06T14:42:32.340Z,26
2019-03-06T14:45:38.857Z,26
2019-03-06T14:48:44.978Z,26
2019-03-06T14:51:50.983Z,26
2019-03-06T14:54:57.006Z,26
2019-03-06T14:58:05.122Z,26
2019-03-06T15:01:11.055Z,26
2019-03-06T15:04:17.183Z,26
2019-03-06T15:07:23.753Z,26
2019-03-06T15:10:29.969Z,26
2019-03-06T15:13:45.289Z,26
2019-03-06T15:16:51.473Z,26
2019-03-06T15:19:58.499Z,26
2019-03-06T15:23:04.600Z,25.9
2019-03-06T15:26:10.865Z,25.9
2019-03-06T15:29:17.397Z,25.9
2019-03-06T15:32:23.694Z,25.9
2019-03-06T15:35:29.671Z,25.9
2019-03-06T15:38:35.829Z,25.8
2019-03-06T15:41:42.883Z,25.8
2019-03-06T15:44:48.883Z,25.8
2019-03-06T15:47:54.895Z,25.8
2019-03-06T15:51:03.166Z,25.8
2019-03-06T15:54:09.964Z,25.8
2019-03-06T15:57:15.955Z,25.8
2019-03-06T16:00:21.943Z,25.8
2019-03-06T16:03:27.976Z,25.7
2019-03-06T16:06:34.034Z,25.7
2019-03-06T16:09:40.055Z,25.7
2019-03-06T16:12:46.108Z,25.6
2019-03-06T16:15:52.912Z,25.6
2019-03-06T16:18:58.922Z,25.6
2019-03-06T16:22:04.982Z,25.6
2019-03-06T16:25:11.064Z,25.6
2019-03-06T16:28:17.204Z,25.6
2019-03-06T16:31:23.289Z,25.5
2019-03-06T16:34:29.315Z,25.5
2019-03-06T16:37:36.138Z,25.5
2019-03-06T16:40:42.086Z,25.5
2019-03-06T16:43:48.118Z,25.4
2019-03-06T16:46:54.293Z,25.3
2019-03-06T16:50:13.648Z,25.4
2019-03-06T16:53:21.885Z,25.4
2019-03-06T16:56:28.045Z,25.4
2019-03-06T16:59:36.622Z,25.3
2019-03-06T17:02:43.153Z,25.3
2019-03-06T17:05:49.167Z,25.3
2019-03-06T17:08:57.032Z,25.3
2019-03-06T17:12:03.257Z,25.3
2019-03-06T17:15:09.471Z,25.3
2019-03-06T17:18:15.436Z,25.3
2019-03-06T17:21:21.429Z,25.3
2019-03-06T17:24:27.948Z,25.3
2019-03-06T17:27:34.111Z,25.3
2019-03-06T17:30:40.268Z,25.3
2019-03-06T17:33:46.744Z,25.4
2019-03-06T17:36:52.857Z,25.3
2019-03-06T17:39:58.982Z,25.3
2019-03-06T17:43:05.181Z,25.3
2019-03-06T17:46:11.194Z,25.3
2019-03-06T17:49:17.292Z,25.3
2019-03-06T17:52:23.333Z,25.3
2019-03-06T17:55:30.334Z,25.3
2019-03-06T17:58:36.411Z,25.3
2019-03-06T18:01:42.428Z,25.3
2019-03-06T18:04:48.481Z,25.3
2019-03-06T18:07:56.796Z,25.3
2019-03-06T18:11:03.024Z,25.3
2019-03-06T18:14:09.142Z,25.3
2019-03-06T18:17:15.726Z,25.2
2019-03-06T18:20:21.769Z,25.2
2019-03-06T18:23:27.934Z,25.2
2019-03-06T18:26:36.162Z,25.2
2019-03-06T18:29:44.906Z,25.2
2019-03-06T18:32:51.098Z,25.2
2019-03-06T18:35:58.980Z,25.2
2019-03-06T18:39:05.802Z,25.2
2019-03-06T18:42:11.863Z,25.1
2019-03-06T18:45:17.939Z,25.1
2019-03-06T18:48:23.928Z,25.1
2019-03-06T18:51:30.028Z,25.1
2019-03-06T18:54:36.041Z,25.1
2019-03-06T18:57:42.300Z,25.1
2019-03-06T19:00:49.680Z,25.1
2019-03-06T19:03:55.864Z,25
2019-03-06T19:07:04.739Z,25
2019-03-06T19:10:10.909Z,25
2019-03-06T19:13:16.860Z,25
2019-03-06T19:16:22.952Z,25
2019-03-06T19:19:29.073Z,25
2019-03-06T19:22:36.052Z,25
2019-03-06T19:25:42.239Z,25
2019-03-06T19:28:48.257Z,25
2019-03-06T19:31:54.400Z,25
2019-03-06T19:35:00.675Z,24.9
2019-03-06T19:38:06.741Z,24.9
2019-03-06T19:41:12.759Z,24.9
2019-03-06T19:44:18.755Z,24.9
2019-03-06T19:47:24.899Z,24.9
2019-03-06T19:50:31.065Z,24.9
2019-03-06T19:53:37.988Z,24.8
2019-03-06T19:56:44.102Z,24.8
2019-03-06T19:59:50.037Z,24.8
2019-03-06T20:02:56.531Z,24.8
2019-03-06T20:06:02.556Z,24.8
2019-03-06T20:09:08.803Z,24.8
2019-03-06T20:12:14.901Z,24.8
2019-03-06T20:15:20.812Z,24.8
2019-03-06T20:18:26.949Z,24.7
2019-03-06T20:21:32.850Z,24.7
2019-03-06T20:24:39.938Z,24.6
2019-03-06T20:27:48.075Z,24.6
2019-03-06T20:30:55.981Z,24.5
2019-03-06T20:34:02.061Z,24.5
2019-03-06T20:37:08.197Z,24.4
2019-03-06T20:40:14.217Z,24.4
2019-03-06T20:43:20.321Z,24.3
2019-03-06T20:46:26.523Z,24.2
2019-03-06T20:49:32.677Z,24.2
2019-03-06T20:52:38.693Z,24.1
2019-03-06T20:55:45.717Z,24.1
2019-03-06T20:58:51.799Z,24.1
2019-03-06T21:02:00.812Z,24
2019-03-06T21:05:06.989Z,24
2019-03-06T21:08:15.704Z,23.9
2019-03-06T21:11:21.801Z,23.9
2019-03-06T21:14:27.931Z,23.9
2019-03-06T21:17:34.744Z,23.8
2019-03-06T21:20:41.508Z,23.8
2019-03-06T21:23:48.791Z,23.7
2019-03-06T21:26:54.724Z,23.7
2019-03-06T21:30:03.697Z,23.7
2019-03-06T21:33:09.732Z,23.7
2019-03-06T21:36:15.728Z,23.6
2019-03-06T21:39:21.763Z,23.6
2019-03-06T21:42:27.776Z,23.6
2019-03-06T21:45:34.012Z,23.6
2019-03-06T21:48:40.282Z,23.5
2019-03-06T21:51:46.505Z,23.5
2019-03-06T21:54:54.084Z,23.4
2019-03-06T21:58:02.847Z,23.4
2019-03-06T22:01:09.037Z,23.4
2019-03-06T22:04:15.273Z,23.4
2019-03-06T22:07:23.831Z,23.3
2019-03-06T22:10:29.840Z,23.3
2019-03-06T22:13:35.842Z,23.3
2019-03-06T22:16:43.085Z,23.3
2019-03-06T22:19:49.164Z,23.3
2019-03-06T22:22:55.319Z,23.2
2019-03-06T22:26:01.473Z,23.2
2019-03-06T22:29:07.541Z,23.2
2019-03-06T22:32:15.776Z,23.2
2019-03-06T22:35:21.863Z,23.1
2019-03-06T22:38:28.003Z,23.1
2019-03-06T22:41:33.905Z,23.1
2019-03-06T22:44:40.030Z,23.1
2019-03-06T22:47:49.045Z,23.1
2019-03-06T22:50:55.169Z,23
2019-03-06T22:54:04.088Z,23
2019-03-06T22:57:10.238Z,23
2019-03-06T23:00:17.551Z,23
2019-03-06T23:03:23.707Z,23
2019-03-06T23:06:32.431Z,23
2019-03-06T23:09:38.503Z,23
2019-03-06T23:12:44.619Z,22.9
2019-03-06T23:15:50.631Z,22.9
2019-03-06T23:18:59.393Z,22.9
2019-03-06T23:22:05.443Z,22.9
2019-03-06T23:25:11.498Z,22.9
2019-03-06T23:28:19.627Z,22.9
2019-03-06T23:31:25.566Z,22.8
2019-03-06T23:34:32.937Z,22.8
2019-03-06T23:37:39.069Z,22.8
2019-03-06T23:40:44.949Z,22.8
2019-03-06T23:43:51.039Z,22.8
2019-03-06T23:46:57.017Z,22.8
2019-03-06T23:50:03.041Z,22.8
2019-03-06T23:53:09.244Z,22.7
2019-03-06T23:56:16.683Z,22.7
2019-03-06T23:59:22.645Z,22.7
